createdAt,value
2022-09-28T00:01:23.904Z,99462.84
2022-09-28T00:03:57.463Z,99465.56
2022-09-28T00:06:28.802Z,99464.78
2022-09-28T00:08:57.482Z,99463.19
2022-09-28T00:11:29.092Z,99458.03
2022-09-28T00:14:03.640Z,99453.72
2022-09-28T00:16:36.283Z,99454.69
2022-09-28T00:19:05.184Z,99448.72
2022-09-28T00:21:37.657Z,99449.66
2022-09-28T00:24:13.357Z,99448.91
2022-09-28T00:26:45.577Z,99448.13
2022-09-28T00:29:31.457Z,99446.41
2022-09-28T00:32:10.591Z,99450.94
2022-09-28T00:34:43.167Z,99451.88
2022-09-28T00:37:10.696Z,99449.41
2022-09-28T00:39:41.310Z,99448.59
2022-09-28T00:42:26.320Z,99446.03
2022-09-28T00:44:55.578Z,99443.47
2022-09-28T00:47:44.569Z,99441.66
2022-09-28T00:50:23.983Z,99445.19
2022-09-28T00:53:14.436Z,99441.66
2022-09-28T00:56:00.409Z,99433.75
2022-09-28T00:58:33.773Z,99440.75
2022-09-28T01:01:01.297Z,99435.50
2022-09-28T01:03:29.392Z,99433.75
2022-09-28T01:06:02.575Z,99430.22
2022-09-28T01:08:34.171Z,99434.59
2022-09-28T01:11:02.282Z,99428.44
2022-09-28T01:13:32.493Z,99429.25
2022-09-28T01:16:21.007Z,99435.22
2022-09-28T01:19:35.485Z,99430.81
2022-09-28T01:22:37.017Z,99424.59
2022-09-28T01:25:41.070Z,99428.84
2022-09-28T01:28:14.868Z,99429.66
2022-09-28T01:30:59.425Z,99431.31
2022-09-28T01:33:44.913Z,99424.31
2022-09-28T01:36:40.446Z,99426.88
2022-09-28T01:39:19.231Z,99427.56
2022-09-28T01:41:53.171Z,99429.41
2022-09-28T01:44:24.178Z,99430.19
2022-09-28T01:46:54.712Z,99427.56
2022-09-28T01:49:34.688Z,99431.78
2022-09-28T01:52:23.028Z,99425.69
2022-09-28T01:55:00.163Z,99425.84
2022-09-28T01:57:40.830Z,99423.13
2022-09-28T02:00:15.768Z,99427.47
2022-09-28T02:02:55.592Z,99426.69
2022-09-28T02:05:40.408Z,99422.34
2022-09-28T02:08:34.972Z,99431.19
2022-09-28T02:11:19.085Z,99427.03
2022-09-28T02:14:07.753Z,99425.34
2022-09-28T02:16:42.101Z,99428.16
2022-09-28T02:19:23.473Z,99431.63
2022-09-28T02:22:11.060Z,99418.63
2022-09-28T02:24:45.177Z,99421.34
2022-09-28T02:27:36.414Z,99425.69
2022-09-28T02:30:06.575Z,99429.19
2022-09-28T02:32:40.471Z,99428.25
2022-09-28T02:35:15.622Z,99431.72
2022-09-28T02:37:44.308Z,99429.97
2022-09-28T02:40:23.830Z,99430.78
2022-09-28T02:43:17.719Z,99433.31
2022-09-28T02:45:57.180Z,99433.31
2022-09-28T02:49:20.305Z,99434.97
2022-09-28T02:52:15.762Z,99434.97
2022-09-28T02:55:25.217Z,99428.84
2022-09-28T02:58:19.186Z,99428.94
2022-09-28T03:01:28.830Z,99433.25
2022-09-28T03:04:29.678Z,99427.16
2022-09-28T03:07:11.013Z,99429.84
2022-09-28T03:09:59.769Z,99428.84
2022-09-28T03:12:33.134Z,99425.34
2022-09-28T03:15:19.318Z,99430.53
2022-09-28T03:17:46.847Z,99422.66
2022-09-28T03:20:15.466Z,99428.75
2022-09-28T03:22:43.233Z,99428.75
2022-09-28T03:25:12.125Z,99425.19
2022-09-28T03:27:40.314Z,99431.31
2022-09-28T03:30:10.436Z,99432.16
2022-09-28T03:32:40.064Z,99426.94
2022-09-28T03:35:09.800Z,99436.56
2022-09-28T03:37:37.209Z,99438.25
2022-09-28T03:40:06.219Z,99433.84
2022-09-28T03:42:37.948Z,99438.97
2022-09-28T03:45:06.454Z,99438.97
2022-09-28T03:47:34.108Z,99437.22
2022-09-28T03:50:01.505Z,99439.81
2022-09-28T03:52:29.179Z,99445.00
2022-09-28T03:54:56.584Z,99437.16
2022-09-28T03:57:24.001Z,99433.59
2022-09-28T03:59:51.374Z,99424.84
2022-09-28T04:02:18.830Z,99428.31
2022-09-28T04:04:46.621Z,99431.78
2022-09-28T04:07:15.211Z,99434.34
2022-09-28T04:09:43.241Z,99428.25
2022-09-28T04:12:10.735Z,99435.19
2022-09-28T04:14:38.114Z,99432.56
2022-09-28T04:17:07.138Z,99433.34
2022-09-28T04:19:35.032Z,99436.75
2022-09-28T04:22:21.040Z,99430.69
2022-09-28T04:24:48.553Z,99430.63
2022-09-28T04:27:34.600Z,99437.63
2022-09-28T04:30:03.004Z,99433.28
2022-09-28T04:32:32.085Z,99426.28
2022-09-28T04:35:00.194Z,99431.53
2022-09-28T04:37:27.551Z,99432.41
2022-09-28T04:39:54.953Z,99430.63
2022-09-28T04:42:22.294Z,99431.53
2022-09-28T04:44:51.170Z,99426.38
2022-09-28T04:47:18.521Z,99443.03
2022-09-28T04:49:45.849Z,99431.84
2022-09-28T04:52:26.647Z,99430.28
2022-09-28T04:54:53.972Z,99427.78
2022-09-28T04:57:21.873Z,99432.16
2022-09-28T04:59:49.224Z,99442.63
2022-09-28T05:02:17.028Z,99427.03
2022-09-28T05:05:13.358Z,99433.31
2022-09-28T05:07:59.739Z,99437.75
2022-09-28T05:10:27.124Z,99443.13
2022-09-28T05:12:54.509Z,99444.09
2022-09-28T05:15:21.894Z,99445.94
2022-09-28T05:17:52.132Z,99449.50
2022-09-28T05:20:42.558Z,99447.13
2022-09-28T05:23:12.300Z,99449.88
2022-09-28T05:25:42.516Z,99452.72
2022-09-28T05:28:27.828Z,99452.72
2022-09-28T05:31:33.425Z,99445.91
2022-09-28T05:34:19.477Z,99447.72
2022-09-28T05:36:47.228Z,99443.41
2022-09-28T05:39:14.726Z,99449.56
2022-09-28T05:41:42.293Z,99449.66
2022-09-28T05:44:09.702Z,99452.28
2022-09-28T05:46:37.236Z,99450.63
2022-09-28T05:49:04.615Z,99450.63
2022-09-28T05:51:32.087Z,99450.69
2022-09-28T05:54:05.351Z,99461.16
2022-09-28T05:56:36.433Z,99458.53
2022-09-28T05:59:06.358Z,99471.56
2022-09-28T06:01:34.032Z,99461.94
2022-09-28T06:04:02.670Z,99467.13
2022-09-28T06:06:30.134Z,99467.97
2022-09-28T06:08:57.638Z,99465.25
2022-09-28T06:11:45.232Z,99474.75
2022-09-28T06:14:32.008Z,99483.34
2022-09-28T06:16:59.482Z,99474.41
2022-09-28T06:19:26.928Z,99476.84
2022-09-28T06:21:59.243Z,99481.91
2022-09-28T06:24:27.116Z,99483.44
2022-09-28T06:26:54.526Z,99485.88
2022-09-28T06:29:22.662Z,99490.91
2022-09-28T06:31:50.054Z,99492.41
2022-09-28T06:34:18.960Z,99491.22
2022-09-28T06:36:46.385Z,99492.75
2022-09-28T06:39:13.907Z,99495.06
2022-09-28T06:41:41.762Z,99495.50
2022-09-28T06:44:17.833Z,99499.94
2022-09-28T06:47:22.708Z,99504.88
2022-09-28T06:50:14.388Z,99501.22
2022-09-28T06:53:00.983Z,99498.59
2022-09-28T06:55:48.989Z,99502.91
2022-09-28T06:58:19.907Z,99502.91
2022-09-28T07:00:51.516Z,99504.72
2022-09-28T07:03:22.503Z,99506.50
2022-09-28T07:05:57.258Z,99505.53
2022-09-28T07:09:19.171Z,99513.06
2022-09-28T07:12:13.345Z,99511.81
2022-09-28T07:15:00.918Z,99514.31
2022-09-28T07:17:29.523Z,99517.75
2022-09-28T07:20:09.286Z,99516.38
2022-09-28T07:22:43.870Z,99515.13
2022-09-28T07:25:17.409Z,99530.16
2022-09-28T07:28:09.404Z,99518.22
2022-09-28T07:31:10.453Z,99521.03
2022-09-28T07:34:02.461Z,99526.63
2022-09-28T07:36:35.123Z,99537.69
2022-09-28T07:39:03.589Z,99534.66
2022-09-28T07:41:33.993Z,99534.22
2022-09-28T07:44:07.368Z,99539.19
2022-09-28T07:46:37.266Z,99552.13
2022-09-28T07:49:16.670Z,99565.06
2022-09-28T07:51:57.898Z,99553.47
2022-09-28T07:54:28.380Z,99553.19
2022-09-28T07:57:12.901Z,99557.25
2022-09-28T08:00:02.119Z,99562.09
2022-09-28T08:02:41.577Z,99560.84
2022-09-28T08:05:09.939Z,99559.66
2022-09-28T08:07:38.263Z,99565.31
2022-09-28T08:10:09.150Z,99570.03
2022-09-28T08:12:59.267Z,99567.97
2022-09-28T08:15:39.676Z,99579.03
2022-09-28T08:18:25.616Z,99575.00
2022-09-28T08:21:12.095Z,99579.03
2022-09-28T08:23:39.659Z,99581.50
2022-09-28T08:26:12.081Z,99581.13
2022-09-28T08:28:44.866Z,99580.75
2022-09-28T08:31:32.422Z,99581.97
2022-09-28T08:34:13.851Z,99579.50
2022-09-28T08:37:06.388Z,99579.00
2022-09-28T08:40:00.064Z,99585.66
2022-09-28T08:42:46.026Z,99587.97
2022-09-28T08:45:35.895Z,99584.84
2022-09-28T08:48:56.197Z,99581.75
2022-09-28T08:51:59.278Z,99581.34
2022-09-28T08:55:02.173Z,99588.66
2022-09-28T08:57:49.449Z,99594.97
2022-09-28T09:00:38.104Z,99583.75
2022-09-28T09:03:12.221Z,99598.88
2022-09-28T09:05:58.446Z,99593.25
2022-09-28T09:09:36.940Z,99596.59
2022-09-28T09:12:29.408Z,99597.69
2022-09-28T09:15:11.796Z,99599.72
2022-09-28T09:18:04.546Z,99611.63
2022-09-28T09:20:59.034Z,99604.78
2022-09-28T09:23:53.884Z,99612.59
2022-09-28T09:26:37.079Z,99609.28
2022-09-28T09:29:29.367Z,99609.31
2022-09-28T09:32:32.058Z,99615.31
2022-09-28T09:35:47.194Z,99614.59
2022-09-28T09:39:19.280Z,99613.84
2022-09-28T09:42:29.639Z,99618.03
2022-09-28T09:46:00.926Z,99620.59
2022-09-28T09:48:52.858Z,99626.97
2022-09-28T09:51:56.225Z,99635.41
2022-09-28T09:54:43.317Z,99623.91
2022-09-28T09:57:26.449Z,99627.88
2022-09-28T10:00:20.212Z,99626.56
2022-09-28T10:03:04.694Z,99620.53
2022-09-28T10:05:43.537Z,99625.66
2022-09-28T10:08:23.698Z,99625.59
2022-09-28T10:11:16.516Z,99628.03
2022-09-28T10:13:49.219Z,99630.13
2022-09-28T10:16:39.712Z,99630.94
2022-09-28T10:19:13.984Z,99627.63
2022-09-28T10:22:06.448Z,99622.94
2022-09-28T10:24:45.162Z,99619.53
2022-09-28T10:27:25.461Z,99624.09
2022-09-28T10:30:00.681Z,99624.38
2022-09-28T10:32:48.662Z,99621.59
2022-09-28T10:35:28.337Z,99628.41
2022-09-28T10:38:11.163Z,99620.94
2022-09-28T10:41:19.053Z,99621.03
2022-09-28T10:44:33.192Z,99628.50
2022-09-28T10:47:38.374Z,99619.34
2022-09-28T10:50:26.351Z,99616.13
2022-09-28T10:53:17.734Z,99620.56
2022-09-28T10:56:20.573Z,99630.84
2022-09-28T10:58:52.040Z,99625.38
2022-09-28T11:01:33.865Z,99623.00
2022-09-28T11:04:10.371Z,99619.31
2022-09-28T11:06:42.009Z,99629.53
2022-09-28T11:09:31.440Z,99623.03
2022-09-28T11:12:07.121Z,99618.13
2022-09-28T11:14:42.671Z,99627.78
2022-09-28T11:17:31.204Z,99619.19
2022-09-28T11:20:27.073Z,99627.28
2022-09-28T11:23:17.963Z,99626.53
2022-09-28T11:26:00.155Z,99620.69
2022-09-28T11:28:33.191Z,99620.97
2022-09-28T11:31:07.815Z,99621.06
2022-09-28T11:34:06.272Z,99624.38
2022-09-28T11:37:10.802Z,99623.41
2022-09-28T11:39:53.973Z,99619.56
2022-09-28T11:42:35.369Z,99617.56
2022-09-28T11:45:58.078Z,99622.75
2022-09-28T11:48:37.141Z,99624.53
2022-09-28T11:51:20.536Z,99627.19
2022-09-28T11:53:59.486Z,99630.88
2022-09-28T11:56:42.359Z,99630.31
2022-09-28T11:59:20.716Z,99624.94
2022-09-28T12:02:11.875Z,99621.34
2022-09-28T12:05:15.837Z,99613.88
2022-09-28T12:07:54.387Z,99610.41
2022-09-28T12:11:05.867Z,99606.25
2022-09-28T12:14:27.176Z,99612.38
2022-09-28T12:17:09.583Z,99617.06
2022-09-28T12:20:10.432Z,99613.22
2022-09-28T12:23:14.436Z,99608.41
2022-09-28T12:25:59.213Z,99610.28
2022-09-28T12:28:48.592Z,99605.97
2022-09-28T12:31:34.537Z,99614.66
2022-09-28T12:34:05.605Z,99617.00
2022-09-28T12:37:03.992Z,99620.00
2022-09-28T12:39:57.900Z,99615.28
2022-09-28T12:43:09.875Z,99604.19
2022-09-28T12:46:12.617Z,99605.91
2022-09-28T12:52:35.453Z,99604.31
2022-09-28T12:55:28.457Z,99596.66
2022-09-28T12:58:26.687Z,99604.72
2022-09-28T13:01:32.394Z,99605.16
2022-09-28T13:04:13.532Z,99607.81
2022-09-28T13:06:49.888Z,99604.94
2022-09-28T13:09:32.254Z,99604.19
2022-09-28T13:12:55.072Z,99608.94
2022-09-28T13:15:46.492Z,99610.38
2022-09-28T13:18:29.202Z,99609.25
2022-09-28T13:21:16.163Z,99621.44
2022-09-28T13:23:48.890Z,99617.84
2022-09-28T13:26:28.720Z,99621.22
2022-09-28T13:29:04.749Z,99617.56
2022-09-28T13:31:37.082Z,99621.50
2022-09-28T13:34:19.366Z,99623.47
2022-09-28T13:37:20.214Z,99621.88
2022-09-28T13:39:59.003Z,99628.47
2022-09-28T13:42:44.864Z,99631.47
2022-09-28T13:45:23.977Z,99631.91
2022-09-28T13:47:51.617Z,99632.50
2022-09-28T13:50:46.670Z,99625.47
2022-09-28T13:53:54.182Z,99633.09
2022-09-28T13:56:36.034Z,99640.41
2022-09-28T13:59:21.160Z,99646.03
2022-09-28T14:02:41.461Z,99664.78
2022-09-28T14:05:25.150Z,99671.94
2022-09-28T14:08:28.113Z,99666.50
2022-09-28T14:11:24.877Z,99674.13
2022-09-28T14:14:08.446Z,99670.84
2022-09-28T14:16:37.176Z,99672.44
2022-09-28T14:19:19.275Z,99674.38
2022-09-28T14:22:23.109Z,99664.81
2022-09-28T14:25:11.734Z,99675.75
2022-09-28T14:28:23.226Z,99674.06
2022-09-28T14:30:58.149Z,99661.94
2022-09-28T14:33:30.589Z,99660.22
2022-09-28T14:36:04.816Z,99658.38
2022-09-28T14:39:05.352Z,99651.25
2022-09-28T14:41:34.137Z,99653.03
2022-09-28T14:44:11.321Z,99662.56
2022-09-28T14:46:47.072Z,99677.44
2022-09-28T14:49:20.236Z,99693.22
2022-09-28T14:51:47.463Z,99712.63
2022-09-28T14:54:23.829Z,99716.44
2022-09-28T14:56:54.296Z,99722.97
2022-09-28T14:59:26.137Z,99711.09
2022-09-28T15:02:13.352Z,99714.84
2022-09-28T15:04:54.316Z,99695.78
2022-09-28T15:07:42.004Z,99711.81
2022-09-28T15:10:33.536Z,99698.16
2022-09-28T15:13:06.624Z,99700.13
2022-09-28T15:15:38.757Z,99709.78
2022-09-28T15:18:27.478Z,99713.19
2022-09-28T15:20:56.003Z,99715.47
2022-09-28T15:23:36.760Z,99699.47
2022-09-28T15:26:08.463Z,99715.84
2022-09-28T15:28:36.707Z,99709.69
2022-09-28T15:31:05.366Z,99711.38
2022-09-28T15:33:53.955Z,99715.63
2022-09-28T15:36:27.775Z,99726.13
2022-09-28T15:39:05.568Z,99720.81
2022-09-28T15:41:34.506Z,99719.88
2022-09-28T15:44:16.270Z,99725.06
2022-09-28T15:46:51.488Z,99711.28
2022-09-28T15:49:38.758Z,99704.06
2022-09-28T15:52:21.578Z,99713.47
2022-09-28T15:54:55.204Z,99711.41
2022-09-28T15:57:37.154Z,99714.53
2022-09-28T16:00:28.546Z,99713.34
2022-09-28T16:03:05.311Z,99716.50
2022-09-28T16:05:46.195Z,99723.31
2022-09-28T16:08:42.845Z,99719.63
2022-09-28T16:11:37.886Z,99727.34
2022-09-28T16:14:19.148Z,99725.28
2022-09-28T16:16:52.414Z,99723.16
2022-09-28T16:19:29.756Z,99720.19
2022-09-28T16:21:59.473Z,99719.72
2022-09-28T16:24:36.659Z,99721.06
2022-09-28T16:27:23.562Z,99722.44
2022-09-28T16:30:14.887Z,99721.13
2022-09-28T16:33:07.583Z,99721.84
2022-09-28T16:35:41.840Z,99723.59
2022-09-28T16:38:15.091Z,99727.03
2022-09-28T16:40:59.338Z,99726.88
2022-09-28T16:43:34.891Z,99726.72
2022-09-28T16:46:06.189Z,99726.66
2022-09-28T16:48:39.705Z,99731.00
2022-09-28T16:51:07.074Z,99734.47
2022-09-28T16:53:54.928Z,99735.41
2022-09-28T16:56:22.377Z,99739.97
2022-09-28T16:58:56.426Z,99722.63
2022-09-28T17:01:24.613Z,99739.41
2022-09-28T17:03:51.963Z,99735.31
2022-09-28T17:06:25.177Z,99736.44
2022-09-28T17:08:58.353Z,99742.84
2022-09-28T17:11:25.853Z,99741.34
2022-09-28T17:13:58.898Z,99742.41
2022-09-28T17:19:25.503Z,99750.78
2022-09-28T17:21:53.228Z,99752.84
2022-09-28T17:24:21.190Z,99759.25
2022-09-28T17:26:51.641Z,99756.03
2022-09-28T17:29:19.063Z,99759.00
2022-09-28T17:31:47.578Z,99758.38
2022-09-28T17:34:16.489Z,99762.97
2022-09-28T17:36:45.193Z,99763.13
2022-09-28T17:39:18.501Z,99755.38
2022-09-28T17:41:46.071Z,99762.44
2022-09-28T17:44:16.594Z,99766.84
2022-09-28T17:46:48.507Z,99769.47
2022-09-28T17:49:16.818Z,99771.25
2022-09-28T17:51:44.344Z,99773.00
2022-09-28T17:54:13.485Z,99778.25
2022-09-28T17:56:42.324Z,99770.47
2022-09-28T17:59:16.140Z,99778.34
2022-09-28T18:01:43.643Z,99774.00
2022-09-28T18:04:23.105Z,99780.25
2022-09-28T18:06:58.029Z,99782.97
2022-09-28T18:09:25.543Z,99774.31
2022-09-28T18:12:00.894Z,99779.66
2022-09-28T18:14:28.578Z,99774.56
2022-09-28T18:16:56.754Z,99778.19
2022-09-28T18:19:27.509Z,99782.66
2022-09-28T18:22:01.718Z,99780.25
2022-09-28T18:24:29.771Z,99787.44
2022-09-28T18:26:57.108Z,99782.41
2022-09-28T18:29:24.463Z,99786.13
2022-09-28T18:31:52.041Z,99788.91
2022-09-28T18:34:19.523Z,99782.06
2022-09-28T18:36:47.047Z,99785.72
2022-09-28T18:39:17.485Z,99788.47
2022-09-28T18:41:44.832Z,99796.50
2022-09-28T18:44:12.167Z,99787.81
2022-09-28T18:46:42.689Z,99798.38
2022-09-28T18:49:10.469Z,99791.59
2022-09-28T18:51:37.852Z,99790.00
2022-09-28T18:54:07.155Z,99791.06
2022-09-28T18:56:37.270Z,99790.41
2022-09-28T18:59:11.245Z,99794.06
2022-09-28T19:01:41.844Z,99796.88
2022-09-28T19:04:10.937Z,99800.53
2022-09-28T19:06:41.163Z,99804.25
2022-09-28T19:09:09.157Z,99804.44
2022-09-28T19:11:36.643Z,99797.69
2022-09-28T19:14:04.119Z,99803.19
2022-09-28T19:16:33.952Z,99802.53
2022-09-28T19:19:03.028Z,99797.44
2022-09-28T19:21:31.027Z,99801.88
2022-09-28T19:24:03.372Z,99800.22
2022-09-28T19:26:32.704Z,99807.34
2022-09-28T19:29:00.998Z,99809.25
2022-09-28T19:31:30.284Z,99807.59
2022-09-28T19:33:57.927Z,99811.22
2022-09-28T19:36:28.344Z,99804.34
2022-09-28T19:38:58.424Z,99804.38
2022-09-28T19:41:43.344Z,99802.75
2022-09-28T19:44:24.569Z,99804.69
2022-09-28T19:46:55.637Z,99817.94
2022-09-28T19:49:26.446Z,99819.75
2022-09-28T19:52:12.249Z,99820.69
2022-09-28T19:55:00.207Z,99826.84
2022-09-28T19:57:31.632Z,99821.72
2022-09-28T20:00:05.696Z,99822.69
2022-09-28T20:02:34.594Z,99823.63
2022-09-28T20:05:02.129Z,99821.13
2022-09-28T20:07:32.697Z,99823.84
2022-09-28T20:10:00.115Z,99829.25
2022-09-28T20:12:27.462Z,99828.47
2022-09-28T20:14:54.822Z,99826.88
2022-09-28T20:17:22.216Z,99834.94
2022-09-28T20:19:51.653Z,99830.78
2022-09-28T20:22:19.932Z,99822.22
2022-09-28T20:24:47.272Z,99830.25
2022-09-28T20:27:14.685Z,99830.41
2022-09-28T20:29:42.966Z,99828.78
2022-09-28T20:32:11.499Z,99832.34
2022-09-28T20:34:38.824Z,99831.53
2022-09-28T20:37:06.207Z,99828.13
2022-09-28T20:39:33.951Z,99829.88
2022-09-28T20:42:01.300Z,99834.31
2022-09-28T20:44:28.672Z,99832.63
2022-09-28T20:46:56.573Z,99828.31
2022-09-28T20:49:24.255Z,99833.56
2022-09-28T20:51:51.624Z,99825.72
2022-09-28T20:54:20.980Z,99825.72
2022-09-28T20:56:48.555Z,99828.41
2022-09-28T20:59:16.240Z,99833.72
2022-09-28T21:01:43.878Z,99834.69
2022-09-28T21:04:11.661Z,99835.66
2022-09-28T21:06:42.857Z,99834.03
2022-09-28T21:09:11.567Z,99834.13
2022-09-28T21:11:40.145Z,99833.31
2022-09-28T21:14:10.176Z,99834.31
2022-09-28T21:16:38.864Z,99840.50
2022-09-28T21:19:06.545Z,99840.59
2022-09-28T21:21:34.122Z,99842.41
2022-09-28T21:24:02.143Z,99838.94
2022-09-28T21:26:37.185Z,99838.13
2022-09-28T21:29:13.366Z,99837.31
2022-09-28T21:31:46.023Z,99834.75
2022-09-28T21:34:20.258Z,99833.06
2022-09-28T21:36:51.463Z,99831.41
2022-09-28T21:39:19.999Z,99841.06
2022-09-28T21:41:47.367Z,99840.16
2022-09-28T21:44:14.849Z,99838.53
2022-09-28T21:46:42.569Z,99850.75
2022-09-28T21:49:10.714Z,99848.19
2022-09-28T21:51:38.205Z,99857.84
2022-09-28T21:54:05.820Z,99845.66
2022-09-28T21:56:34.086Z,99854.38
2022-09-28T21:59:01.507Z,99846.53
2022-09-28T22:01:29.087Z,99848.22
2022-09-28T22:03:57.146Z,99849.97
2022-09-28T22:06:30.038Z,99861.25
2022-09-28T22:08:57.678Z,99855.13
2022-09-28T22:11:29.149Z,99855.13
2022-09-28T22:13:59.576Z,99863.88
2022-09-28T22:16:30.528Z,99863.06
2022-09-28T22:18:59.657Z,99864.88
2022-09-28T22:21:31.954Z,99868.44
2022-09-28T22:24:05.112Z,99872.06
2022-09-28T22:26:35.894Z,99873.00
2022-09-28T22:29:07.589Z,99869.59
2022-09-28T22:31:37.465Z,99866.34
2022-09-28T22:34:06.941Z,99869.03
2022-09-28T22:36:35.456Z,99876.03
2022-09-28T22:39:04.463Z,99875.28
2022-09-28T22:41:32.119Z,99878.81
2022-09-28T22:43:59.836Z,99877.97
2022-09-28T22:46:31.697Z,99880.63
2022-09-28T22:48:59.887Z,99882.38
2022-09-28T22:51:29.894Z,99877.19
2022-09-28T22:53:58.365Z,99878.16
2022-09-28T22:56:25.824Z,99884.22
2022-09-28T22:58:53.346Z,99878.16
2022-09-28T23:01:24.777Z,99881.56
2022-09-28T23:03:54.386Z,99872.81
2022-09-28T23:06:26.081Z,99878.84
2022-09-28T23:08:53.845Z,99885.03
2022-09-28T23:11:21.746Z,99882.41
2022-09-28T23:13:58.108Z,99878.81
2022-09-28T23:16:27.968Z,99875.34
2022-09-28T23:18:56.317Z,99867.53
2022-09-28T23:21:26.727Z,99875.44
2022-09-28T23:23:58.444Z,99875.47
2022-09-28T23:26:28.213Z,99874.81
2022-09-28T23:28:56.434Z,99876.63
2022-09-28T23:31:28.783Z,99875.75
2022-09-28T23:34:06.493Z,99871.41
2022-09-28T23:36:34.682Z,99880.19
2022-09-28T23:39:02.147Z,99877.63
2022-09-28T23:41:30.102Z,99879.38
2022-09-28T23:43:57.607Z,99883.66
2022-09-28T23:46:24.994Z,99880.19
2022-09-28T23:48:52.515Z,99886.28
2022-09-28T23:51:19.911Z,99881.97
2022-09-28T23:53:47.340Z,99886.28
2022-09-28T23:56:14.909Z,99884.56
2022-09-28T23:58:42.859Z,99885.41
